Time;durP1;ratioP1;P1;durP2;ratioP2;P2;SDS_P1;SDS_P2;PMS_P1;PMS_P2;Temp;Humidity;BMP_temperature;BMP_pressure;BME280_temperature;BME280_humidity;BME280_pressure;Samples;Min_cycle;Max_cycle;Signal;HPM_P1;HPM_P2
2022/03/23 00:01:41;;;;;;;8.88;7.97;;;9.10;98.50;;;;;;4993727;28;20499;-64
2022/03/23 00:04:07;;;;;;;9.95;7.63;;;9.10;98.50;;;;;;4995647;28;20034;-65
2022/03/23 00:06:34;;;;;;;9.77;7.40;;;9.10;98.50;;;;;;4993069;28;20053;-65
2022/03/23 00:09:00;;;;;;;9.75;6.88;;;9.10;98.70;;;;;;4994231;28;20038;-65
2022/03/23 00:11:27;;;;;;;9.65;7.30;;;9.00;98.70;;;;;;4995197;28;20049;-64
2022/03/23 00:13:54;;;;;;;9.18;7.68;;;9.00;98.70;;;;;;4995666;28;20394;-65
2022/03/23 00:16:20;;;;;;;8.60;7.13;;;9.00;98.90;;;;;;4995114;28;20030;-65
2022/03/23 00:18:46;;;;;;;9.48;7.55;;;9.00;98.90;;;;;;4994388;28;20021;-65
2022/03/23 00:21:12;;;;;;;9.90;7.25;;;8.90;99.20;;;;;;4991852;28;20027;-65
2022/03/23 00:23:38;;;;;;;8.02;6.93;;;8.90;99.10;;;;;;4997565;28;20033;-65
2022/03/23 00:26:03;;;;;;;9.85;7.03;;;8.90;99.10;;;;;;4995072;28;20565;-64
2022/03/23 00:28:29;;;;;;;10.65;7.40;;;8.80;99.30;;;;;;4993515;28;20042;-65
2022/03/23 00:30:55;;;;;;;9.50;8.48;;;8.80;99.40;;;;;;4995035;28;20395;-65
2022/03/23 00:33:21;;;;;;;9.10;7.00;;;8.70;99.60;;;;;;4990633;28;20038;-65
2022/03/23 00:35:48;;;;;;;11.23;7.30;;;8.70;99.40;;;;;;4996979;28;20019;-65
2022/03/23 00:38:15;;;;;;;8.55;6.68;;;8.70;99.50;;;;;;4995010;28;20129;-64
2022/03/23 00:40:43;;;;;;;10.00;6.82;;;8.70;99.60;;;;;;4993416;28;20487;-63
2022/03/23 00:43:09;;;;;;;8.13;6.57;;;8.60;99.80;;;;;;4994792;28;20116;-65
2022/03/23 00:45:35;;;;;;;11.27;6.57;;;8.50;99.90;;;;;;4992203;28;20835;-65
2022/03/23 00:48:02;;;;;;;9.15;6.68;;;8.50;99.80;;;;;;4993642;28;20109;-65
2022/03/23 00:50:28;;;;;;;8.43;6.60;;;8.40;99.90;;;;;;4993747;28;20038;-65
2022/03/23 00:52:53;;;;;;;8.75;6.15;;;8.40;99.90;;;;;;4994753;28;20491;-64
2022/03/23 00:55:19;;;;;;;10.75;6.70;;;8.40;99.90;;;;;;4994725;28;20109;-64
2022/03/23 00:57:45;;;;;;;9.25;6.97;;;8.30;99.90;;;;;;4993633;28;20049;-65
2022/03/23 01:00:16;;;;;;;10.57;6.68;;;8.20;99.90;;;;;;4989789;28;20042;-65
2022/03/23 01:02:43;;;;;;;8.75;6.47;;;8.20;99.90;;;;;;4996549;28;20023;-64
2022/03/23 01:05:11;;;;;;;10.63;6.72;;;8.20;99.90;;;;;;4994440;28;20121;-64
2022/03/23 01:07:41;;;;;;;10.68;7.50;;;8.20;99.90;;;;;;4993421;28;20098;-64
2022/03/23 01:10:12;;;;;;;11.32;7.57;;;8.10;99.90;;;;;;4994302;28;20049;-65
2022/03/23 01:12:43;;;;;;;11.45;7.70;;;8.10;99.90;;;;;;4992398;28;20078;-64
2022/03/23 01:15:11;;;;;;;11.52;7.65;;;8.00;99.90;;;;;;4991333;28;20034;-64
2022/03/23 01:17:37;;;;;;;11.05;7.75;;;8.00;99.90;;;;;;4996498;28;20023;-65
2022/03/23 01:20:08;;;;;;;14.23;8.02;;;8.00;99.90;;;;;;4994315;28;20395;-64
2022/03/23 01:22:35;;;;;;;11.65;7.45;;;7.90;99.90;;;;;;4997945;28;20503;-64
2022/03/23 01:25:03;;;;;;;10.77;7.93;;;7.80;99.90;;;;;;4998983;28;20030;-65
2022/03/23 01:27:29;;;;;;;12.10;7.68;;;7.90;99.90;;;;;;4993634;28;20392;-65
2022/03/23 01:29:55;;;;;;;12.18;7.10;;;7.80;99.90;;;;;;4998381;28;20107;-65
2022/03/23 01:32:20;;;;;;;10.95;7.07;;;7.70;99.90;;;;;;4999121;28;20475;-65
2022/03/23 01:34:46;;;;;;;8.85;7.18;;;7.80;99.90;;;;;;4998530;28;20045;-65
2022/03/23 01:37:12;;;;;;;10.43;7.82;;;7.70;99.90;;;;;;4998465;28;20116;-65
2022/03/23 01:39:38;;;;;;;11.45;8.40;;;7.70;99.90;;;;;;4996261;28;20124;-65
2022/03/23 01:42:04;;;;;;;12.02;8.50;;;7.70;99.90;;;;;;4994430;28;20507;-65
2022/03/23 01:44:29;;;;;;;12.60;8.70;;;7.60;99.90;;;;;;4999963;28;20034;-65
2022/03/23 01:47:14;;;;;;;12.88;8.77;;;7.60;99.90;;;;;;4996792;28;20042;-65
2022/03/23 01:49:44;;;;;;;11.27;8.50;;;7.50;99.90;;;;;;4998507;28;20038;-65
2022/03/23 01:52:13;;;;;;;10.18;8.38;;;7.50;99.90;;;;;;4998212;28;20049;-65
2022/03/23 01:54:40;;;;;;;11.70;7.70;;;7.50;99.90;;;;;;4993138;28;20031;-65
2022/03/23 01:57:07;;;;;;;14.70;8.00;;;7.50;99.90;;;;;;4995591;28;20411;-65
2022/03/23 01:59:35;;;;;;;10.32;7.53;;;7.40;99.90;;;;;;4998084;28;20368;-65
2022/03/23 02:02:01;;;;;;;12.18;7.57;;;7.40;99.90;;;;;;4997750;28;20458;-65
2022/03/23 02:04:27;;;;;;;11.73;8.40;;;7.30;99.90;;;;;;4997866;28;20106;-65
2022/03/23 02:06:53;;;;;;;11.15;7.93;;;7.30;99.90;;;;;;4996772;28;20045;-65
2022/03/23 02:09:19;;;;;;;11.25;8.60;;;7.30;99.90;;;;;;4977909;28;20070;-65
2022/03/23 02:11:47;;;;;;;10.93;8.32;;;7.40;99.90;;;;;;4999301;28;20035;-65
2022/03/23 02:14:13;;;;;;;11.02;7.90;;;7.30;99.90;;;;;;4997547;28;20496;-65
2022/03/23 02:16:40;;;;;;;11.82;7.75;;;7.40;99.90;;;;;;4997895;28;20033;-65
2022/03/23 02:19:05;;;;;;;11.70;8.73;;;7.40;99.90;;;;;;4997537;28;20064;-65
2022/03/23 02:21:32;;;;;;;11.23;7.90;;;7.30;99.90;;;;;;4994559;28;20050;-65
2022/03/23 02:23:58;;;;;;;10.75;8.15;;;7.30;99.90;;;;;;4995390;28;20026;-65
2022/03/23 02:26:25;;;;;;;11.32;7.93;;;7.20;99.90;;;;;;4996988;28;20124;-65
2022/03/23 02:28:52;;;;;;;10.98;7.70;;;7.30;99.90;;;;;;4997408;28;20513;-64
2022/03/23 02:31:17;;;;;;;8.77;7.70;;;7.30;99.90;;;;;;4997186;28;20022;-64
2022/03/23 02:33:43;;;;;;;11.13;7.75;;;7.30;99.90;;;;;;4995964;28;20479;-65
2022/03/23 02:36:09;;;;;;;8.95;7.43;;;7.30;99.90;;;;;;4994561;28;20065;-64
2022/03/23 02:38:34;;;;;;;10.52;7.60;;;7.20;99.90;;;;;;4997677;28;20034;-64
2022/03/23 02:41:00;;;;;;;11.60;7.95;;;7.20;99.90;;;;;;4996477;28;20423;-64
2022/03/23 02:43:26;;;;;;;9.80;7.70;;;7.20;99.90;;;;;;4996936;28;20415;-65
2022/03/23 02:45:52;;;;;;;11.80;8.48;;;7.20;99.90;;;;;;4995738;28;20101;-65
2022/03/23 02:48:17;;;;;;;11.48;8.30;;;7.20;99.90;;;;;;4992897;28;20043;-65
2022/03/23 02:50:43;;;;;;;9.95;8.13;;;7.20;99.90;;;;;;4999163;28;20607;-64
2022/03/23 03:01:54;;;;;;;12.15;7.80;;;7.10;99.90;;;;;;4996859;28;19964;-65
2022/03/23 03:04:24;;;;;;;12.05;8.02;;;7.10;99.90;;;;;;4995112;28;20453;-65
2022/03/23 03:06:50;;;;;;;8.65;7.72;;;7.10;99.90;;;;;;4996473;28;20037;-65
2022/03/23 03:09:16;;;;;;;9.52;8.45;;;7.10;99.90;;;;;;4992423;28;20122;-65
2022/03/23 03:11:43;;;;;;;12.45;8.43;;;7.10;99.90;;;;;;4998182;28;20077;-65
2022/03/23 03:14:11;;;;;;;11.07;8.25;;;7.00;99.90;;;;;;4996722;28;20491;-65
2022/03/23 03:16:37;;;;;;;9.80;8.40;;;7.00;99.90;;;;;;4995366;28;20026;-65
2022/03/23 03:19:06;;;;;;;10.80;8.30;;;6.90;99.90;;;;;;4996405;28;20030;-65
2022/03/23 03:21:34;;;;;;;10.63;8.50;;;6.90;99.90;;;;;;4993512;28;20179;-65
2022/03/23 03:24:01;;;;;;;11.38;8.20;;;6.80;99.90;;;;;;4995522;28;20526;-65
2022/03/23 03:26:27;;;;;;;10.45;8.60;;;6.70;99.90;;;;;;4996015;28;20113;-65
2022/03/23 03:28:53;;;;;;;12.30;8.88;;;6.80;99.90;;;;;;4996140;28;20058;-65
2022/03/23 03:31:19;;;;;;;9.30;8.27;;;6.80;99.90;;;;;;4996086;28;20049;-65
2022/03/23 03:33:45;;;;;;;9.60;8.13;;;6.80;99.90;;;;;;4994998;28;20076;-64
2022/03/23 03:36:11;;;;;;;11.43;8.30;;;6.80;99.90;;;;;;4992819;28;20472;-65
2022/03/23 03:38:38;;;;;;;12.32;8.20;;;6.80;99.90;;;;;;4998154;28;20061;-65
2022/03/23 03:41:04;;;;;;;10.00;8.50;;;6.60;99.90;;;;;;4995658;28;20035;-65
2022/03/23 03:43:31;;;;;;;11.50;8.05;;;6.70;99.90;;;;;;4993799;28;20026;-65
2022/03/23 03:45:58;;;;;;;9.40;8.30;;;6.70;99.90;;;;;;4995945;28;20052;-64
2022/03/23 03:48:24;;;;;;;9.93;8.15;;;6.70;99.90;;;;;;4992117;28;20030;-64
2022/03/23 03:50:50;;;;;;;9.57;8.50;;;6.60;99.90;;;;;;4997613;28;20549;-64
2022/03/23 03:53:16;;;;;;;9.52;8.45;;;6.60;99.90;;;;;;4994259;28;20102;-64
2022/03/23 03:55:42;;;;;;;9.75;8.52;;;6.60;99.90;;;;;;4994361;28;20491;-64
2022/03/23 03:58:08;;;;;;;10.55;8.48;;;6.60;99.90;;;;;;4995562;28;20041;-64
2022/03/23 04:00:35;;;;;;;12.40;9.25;;;6.60;99.90;;;;;;4993026;28;20027;-64
2022/03/23 04:03:02;;;;;;;11.75;9.05;;;6.50;99.90;;;;;;4994693;28;20380;-64
2022/03/23 04:05:29;;;;;;;10.68;8.63;;;6.50;99.90;;;;;;4995557;28;20023;-65
2022/03/23 04:07:58;;;;;;;12.25;9.05;;;6.50;99.90;;;;;;4995182;28;20038;-65
2022/03/23 04:10:25;;;;;;;10.95;9.02;;;6.50;99.90;;;;;;4995293;28;20026;-64
2022/03/23 04:12:51;;;;;;;12.68;8.60;;;6.40;99.90;;;;;;4995030;28;20025;-65
2022/03/23 04:15:19;;;;;;;10.52;8.95;;;6.40;99.90;;;;;;4991845;28;20022;-64
2022/03/23 04:17:45;;;;;;;14.38;9.68;;;6.30;99.90;;;;;;4997314;28;20500;-64
2022/03/23 04:20:11;;;;;;;12.05;9.30;;;6.30;99.90;;;;;;4995340;28;20054;-64
2022/03/23 04:22:38;;;;;;;11.15;9.23;;;6.30;99.90;;;;;;4993404;28;20037;-64
2022/03/23 04:25:07;;;;;;;11.50;8.88;;;6.20;99.90;;;;;;4995458;28;20040;-64
2022/03/23 04:27:34;;;;;;;10.23;9.05;;;6.30;99.90;;;;;;4992263;28;20058;-64
2022/03/23 04:30:00;;;;;;;12.52;9.02;;;6.20;99.90;;;;;;4994307;28;20046;-64
2022/03/23 04:32:26;;;;;;;11.30;9.10;;;6.20;99.90;;;;;;4996648;28;20031;-64
2022/03/23 04:34:52;;;;;;;11.80;8.60;;;6.10;99.90;;;;;;4993652;28;20045;-64
2022/03/23 04:37:17;;;;;;;10.75;8.90;;;6.10;99.90;;;;;;4994661;28;20018;-64
2022/03/23 04:39:43;;;;;;;14.13;9.55;;;6.10;99.90;;;;;;4992086;28;20120;-64
2022/03/23 04:42:09;;;;;;;12.55;9.20;;;6.10;99.90;;;;;;4992209;28;20058;-64
2022/03/23 04:44:35;;;;;;;12.07;9.23;;;6.20;99.90;;;;;;4995207;28;20097;-64
2022/03/23 04:47:01;;;;;;;14.02;9.25;;;6.30;99.90;;;;;;4994843;28;20019;-64
2022/03/23 04:49:27;;;;;;;13.52;9.35;;;6.20;99.90;;;;;;4994679;28;20499;-64
2022/03/23 04:51:52;;;;;;;12.50;8.75;;;6.30;99.90;;;;;;4994592;28;20018;-64
2022/03/23 04:54:18;;;;;;;10.57;9.50;;;6.20;99.90;;;;;;4990013;28;20538;-64
2022/03/23 04:56:44;;;;;;;11.20;9.65;;;6.20;99.90;;;;;;4996596;28;20018;-64
2022/03/23 04:59:09;;;;;;;11.38;9.40;;;6.20;99.90;;;;;;4994506;28;20042;-64
2022/03/23 05:01:35;;;;;;;10.48;9.50;;;6.10;99.90;;;;;;4993135;28;20475;-64
2022/03/23 05:04:01;;;;;;;10.88;9.43;;;6.00;99.90;;;;;;4994449;28;20034;-64
2022/03/23 05:06:27;;;;;;;10.23;9.05;;;6.00;99.90;;;;;;4991028;28;20507;-64
2022/03/23 05:08:53;;;;;;;10.45;9.38;;;6.00;99.90;;;;;;4995487;28;20034;-64
2022/03/23 05:11:19;;;;;;;12.68;9.70;;;5.90;99.90;;;;;;4994907;28;20096;-64
2022/03/23 05:13:44;;;;;;;12.63;9.60;;;6.00;99.90;;;;;;4993169;28;20480;-64
2022/03/23 05:16:10;;;;;;;11.48;10.30;;;5.90;99.90;;;;;;4994502;28;20037;-64
2022/03/23 05:18:36;;;;;;;10.93;9.18;;;5.90;99.90;;;;;;4992178;28;20084;-64
2022/03/23 05:21:02;;;;;;;10.65;9.55;;;5.90;99.90;;;;;;4993218;28;20038;-64
2022/03/23 05:23:28;;;;;;;13.93;8.98;;;5.90;99.90;;;;;;4993959;28;20035;-64
2022/03/23 05:25:54;;;;;;;11.23;9.52;;;5.90;99.90;;;;;;4994801;28;20034;-64
2022/03/23 05:28:20;;;;;;;10.52;9.25;;;5.80;99.90;;;;;;4994286;28;20121;-64
2022/03/23 05:30:46;;;;;;;12.05;9.50;;;5.80;99.90;;;;;;4993253;28;20503;-64
2022/03/23 05:33:12;;;;;;;11.18;9.20;;;5.70;99.90;;;;;;4991248;28;20042;-64
2022/03/23 05:35:38;;;;;;;14.15;10.27;;;5.60;99.90;;;;;;4996309;28;20030;-64
2022/03/23 05:38:03;;;;;;;13.07;9.75;;;5.60;99.90;;;;;;4994214;28;20502;-64
2022/03/23 05:40:29;;;;;;;16.58;10.32;;;5.70;99.90;;;;;;4992744;28;20029;-64
2022/03/23 05:42:55;;;;;;;13.00;9.98;;;5.60;99.90;;;;;;4992832;28;20045;-64
2022/03/23 05:45:21;;;;;;;13.55;9.25;;;5.60;99.90;;;;;;4990187;28;20034;-64
2022/03/23 05:47:48;;;;;;;11.82;9.50;;;5.60;99.90;;;;;;4996113;28;20545;-64
2022/03/23 05:50:14;;;;;;;11.30;9.48;;;5.60;99.90;;;;;;4993951;28;20022;-64
2022/03/23 05:52:40;;;;;;;10.02;9.02;;;5.70;99.90;;;;;;4992613;28;20033;-64
2022/03/23 05:55:07;;;;;;;10.57;9.07;;;5.70;99.90;;;;;;4994044;28;20037;-64
2022/03/23 05:57:34;;;;;;;10.75;9.63;;;5.70;99.90;;;;;;4991411;28;20050;-64
2022/03/23 06:00:00;;;;;;;11.38;9.45;;;5.70;99.90;;;;;;4993369;28;20031;-64
2022/03/23 06:02:26;;;;;;;14.73;9.65;;;5.80;99.90;;;;;;4993900;28;20041;-64
2022/03/23 06:04:52;;;;;;;10.25;9.15;;;5.80;99.90;;;;;;4994165;28;20113;-64
2022/03/23 06:07:17;;;;;;;10.15;8.95;;;5.90;99.90;;;;;;4996593;28;20117;-64
2022/03/23 06:09:44;;;;;;;10.65;9.43;;;5.90;99.90;;;;;;4996254;28;20071;-64
2022/03/23 06:12:12;;;;;;;11.20;9.73;;;5.90;99.90;;;;;;4994690;28;20495;-64
2022/03/23 06:14:42;;;;;;;12.02;9.25;;;5.90;99.90;;;;;;4999759;28;20039;-64
2022/03/23 06:17:09;;;;;;;10.65;9.27;;;5.90;99.90;;;;;;4997741;28;20034;-62
2022/03/23 06:19:34;;;;;;;11.05;9.27;;;5.90;99.90;;;;;;4995997;28;20061;-64
2022/03/23 06:22:00;;;;;;;11.30;9.85;;;6.00;99.90;;;;;;4997358;28;20131;-64
2022/03/23 06:24:27;;;;;;;11.50;10.02;;;6.20;99.90;;;;;;4993636;28;20042;-64
2022/03/23 06:26:53;;;;;;;11.15;9.95;;;6.40;99.90;;;;;;4998622;28;20479;-64
2022/03/23 06:29:19;;;;;;;12.32;11.00;;;6.70;99.90;;;;;;4997588;28;20034;-64
2022/03/23 06:31:45;;;;;;;11.23;9.73;;;6.90;99.90;;;;;;4995951;28;20117;-63
2022/03/23 06:34:10;;;;;;;18.25;11.45;;;7.70;99.90;;;;;;4997167;28;20030;-64
2022/03/23 06:36:36;;;;;;;13.02;10.02;;;8.40;99.90;;;;;;4994637;28;20117;-64
2022/03/23 06:39:04;;;;;;;13.35;10.35;;;9.40;99.90;;;;;;4996258;28;20031;-64
2022/03/23 06:41:31;;;;;;;13.95;11.13;;;10.10;99.90;;;;;;4997079;28;20534;-64
2022/03/23 06:43:56;;;;;;;13.20;11.00;;;10.40;99.90;;;;;;4996944;28;20507;-64
2022/03/23 06:46:22;;;;;;;12.75;10.80;;;10.10;99.90;;;;;;4996546;28;20065;-64
2022/03/23 06:48:48;;;;;;;12.30;8.77;;;10.60;99.90;;;;;;4996459;28;20061;-65
2022/03/23 06:51:15;;;;;;;10.80;8.85;;;10.70;99.90;;;;;;4993369;28;20030;-64
2022/03/23 06:53:41;;;;;;;9.32;8.32;;;11.80;99.90;;;;;;4997275;28;20031;-63
2022/03/23 06:56:08;;;;;;;8.90;8.00;;;12.20;99.60;;;;;;4997151;28;20062;-65
2022/03/23 06:58:34;;;;;;;9.70;8.43;;;12.10;98.90;;;;;;4995008;28;20027;-64
2022/03/23 07:01:00;;;;;;;8.85;7.60;;;11.60;99.50;;;;;;4996328;28;20054;-63
2022/03/23 07:03:27;;;;;;;10.55;8.05;;;12.10;98.80;;;;;;4992709;28;20064;-63
2022/03/23 07:05:53;;;;;;;14.13;8.38;;;12.30;98.00;;;;;;4997980;28;20092;-64
2022/03/23 07:11:06;;;;;;;11.07;7.30;;;13.30;98.50;;;;;;4995348;28;20041;-63
2022/03/23 07:13:32;;;;;;;9.45;7.35;;;13.70;97.00;;;;;;4996494;28;20113;-63
2022/03/23 07:15:58;;;;;;;8.60;7.03;;;14.30;95.80;;;;;;4996322;28;20041;-63
2022/03/23 07:18:24;;;;;;;8.05;6.90;;;14.20;96.40;;;;;;4990039;28;20035;-64
2022/03/23 07:20:50;;;;;;;9.65;6.43;;;13.80;95.40;;;;;;4998158;28;20019;-64
2022/03/23 07:23:15;;;;;;;7.78;6.28;;;14.80;94.70;;;;;;4996141;28;20545;-65
2022/03/23 07:25:41;;;;;;;7.70;6.57;;;15.20;94.20;;;;;;4996609;28;20019;-63
2022/03/23 07:28:07;;;;;;;10.10;7.20;;;14.60;94.10;;;;;;4996073;28;20034;-64
2022/03/23 07:30:34;;;;;;;7.70;6.10;;;14.70;93.60;;;;;;4992931;28;20048;-63
2022/03/23 07:33:01;;;;;;;7.70;6.68;;;14.90;93.50;;;;;;4995690;28;20128;-66
2022/03/23 07:35:27;;;;;;;10.02;6.50;;;14.90;93.30;;;;;;4997208;28;20073;-63
2022/03/23 07:37:53;;;;;;;6.90;5.97;;;15.60;92.80;;;;;;4993012;28;20030;-63
2022/03/23 07:40:19;;;;;;;7.63;6.30;;;17.90;90.20;;;;;;4993260;28;20121;-65
2022/03/23 07:42:44;;;;;;;7.15;6.05;;;17.40;89.20;;;;;;4993127;28;20141;-63
2022/03/23 07:45:11;;;;;;;10.18;5.97;;;17.60;89.50;;;;;;5007428;28;20036;-66
2022/03/23 07:47:38;;;;;;;6.93;5.93;;;18.20;88.10;;;;;;4997856;28;20377;-64
2022/03/23 07:50:04;;;;;;;8.60;5.72;;;19.50;85.80;;;;;;4994315;28;20050;-65
2022/03/23 07:52:30;;;;;;;9.88;5.85;;;17.60;87.30;;;;;;4995960;28;20026;-65
2022/03/23 07:54:56;;;;;;;8.13;6.22;;;17.70;87.20;;;;;;4994374;28;20080;-65
2022/03/23 07:57:21;;;;;;;8.27;6.20;;;16.00;90.80;;;;;;4990379;28;20510;-65
2022/03/23 07:59:48;;;;;;;7.60;5.63;;;16.70;90.20;;;;;;4997497;28;20542;-65
2022/03/23 08:02:13;;;;;;;6.55;5.60;;;16.60;90.50;;;;;;4995475;28;20400;-65
2022/03/23 08:04:39;;;;;;;10.05;5.85;;;18.20;87.50;;;;;;4995112;28;20109;-65
2022/03/23 08:07:05;;;;;;;6.72;5.75;;;19.00;85.70;;;;;;4995231;28;20099;-65
2022/03/23 08:09:31;;;;;;;6.50;5.63;;;19.50;84.00;;;;;;4991777;28;20038;-65
2022/03/23 08:11:58;;;;;;;7.47;5.63;;;18.60;85.10;;;;;;4995357;28;20031;-65
2022/03/23 08:14:24;;;;;;;6.43;5.70;;;17.60;87.50;;;;;;4996483;28;20030;-66
2022/03/23 08:16:52;;;;;;;7.72;5.82;;;18.60;85.60;;;;;;4993956;28;20026;-65
2022/03/23 08:19:22;;;;;;;7.15;5.88;;;18.20;87.20;;;;;;4995264;28;20037;-66
2022/03/23 08:21:49;;;;;;;11.25;5.97;;;17.60;88.30;;;;;;4994452;28;20034;-65
2022/03/23 08:24:15;;;;;;;6.45;5.30;;;19.70;83.20;;;;;;4990433;28;20030;-64
2022/03/23 08:26:41;;;;;;;6.85;5.97;;;18.60;85.90;;;;;;4997831;28;20026;-65
2022/03/23 08:29:07;;;;;;;6.72;5.50;;;19.20;84.20;;;;;;4993260;28;20038;-65
2022/03/23 08:31:32;;;;;;;6.97;5.05;;;18.50;85.90;;;;;;4995309;28;20026;-66
2022/03/23 08:33:58;;;;;;;6.03;5.43;;;19.10;84.50;;;;;;4995220;28;20029;-66
2022/03/23 08:36:24;;;;;;;10.25;5.97;;;19.10;83.90;;;;;;4989837;28;20033;-65
2022/03/23 08:38:50;;;;;;;5.82;5.32;;;19.20;82.90;;;;;;4996932;28;20066;-65
2022/03/23 08:41:16;;;;;;;7.88;5.00;;;18.60;85.00;;;;;;4995159;28;20055;-65
2022/03/23 08:43:42;;;;;;;6.72;5.72;;;21.10;80.60;;;;;;4994737;28;20034;-65
2022/03/23 08:46:08;;;;;;;6.43;5.20;;;20.40;80.00;;;;;;4995045;28;20383;-66
2022/03/23 08:48:35;;;;;;;8.25;5.53;;;20.70;80.50;;;;;;4992162;28;20038;-65
2022/03/23 08:51:01;;;;;;;6.57;5.35;;;19.60;81.70;;;;;;4993729;28;20044;-65
2022/03/23 08:53:27;;;;;;;7.13;5.97;;;19.40;83.60;;;;;;4996427;28;20019;-65
2022/03/23 08:55:53;;;;;;;8.88;5.20;;;19.20;82.80;;;;;;4993321;28;20060;-66
2022/03/23 08:58:19;;;;;;;7.20;5.15;;;19.10;82.80;;;;;;4994428;28;20582;-65
2022/03/23 09:00:45;;;;;;;8.95;5.65;;;20.90;79.60;;;;;;4993814;28;20117;-66
2022/03/23 09:03:10;;;;;;;8.80;5.57;;;20.50;80.30;;;;;;4990413;28;20022;-65
2022/03/23 09:05:37;;;;;;;6.32;4.70;;;20.90;80.60;;;;;;4996802;28;20038;-66
2022/03/23 09:08:03;;;;;;;8.02;5.20;;;20.60;79.50;;;;;;4993695;28;20026;-65
2022/03/23 09:10:28;;;;;;;11.45;6.30;;;21.50;78.60;;;;;;4994647;28;20044;-66
2022/03/23 09:12:54;;;;;;;5.65;5.15;;;19.80;81.00;;;;;;4993102;28;20120;-66
2022/03/23 09:15:20;;;;;;;6.80;5.20;;;19.30;83.00;;;;;;4988171;28;20031;-66
2022/03/23 09:17:47;;;;;;;6.20;5.10;;;20.40;80.20;;;;;;4996526;28;20022;-66
2022/03/23 09:20:13;;;;;;;6.63;5.00;;;20.50;80.00;;;;;;4994985;28;20507;-66
2022/03/23 09:22:40;;;;;;;6.60;5.15;;;20.00;80.70;;;;;;4994564;28;20457;-66
2022/03/23 09:25:09;;;;;;;7.70;5.53;;;20.00;81.30;;;;;;4995417;28;20032;-66
2022/03/23 09:27:39;;;;;;;7.38;5.10;;;19.30;81.90;;;;;;4990815;28;20040;-65
2022/03/23 09:30:07;;;;;;;7.68;5.90;;;21.10;80.50;;;;;;4992404;28;20096;-65
2022/03/23 09:32:33;;;;;;;7.18;6.25;;;20.30;80.30;;;;;;4994709;28;20034;-65
2022/03/23 09:35:00;;;;;;;7.38;5.40;;;19.90;81.50;;;;;;4993043;28;20519;-65
2022/03/23 09:40:11;;;;;;;6.32;4.82;;;20.00;82.70;;;;;;4994885;28;20052;-65
2022/03/23 09:42:39;;;;;;;7.93;5.00;;;19.20;82.60;;;;;;4995375;28;20038;-66
2022/03/23 09:45:06;;;;;;;6.93;5.35;;;19.70;83.00;;;;;;4996994;28;20037;-66
2022/03/23 09:47:31;;;;;;;5.75;5.05;;;19.90;82.10;;;;;;4998132;28;20015;-66
2022/03/23 09:49:57;;;;;;;5.85;4.85;;;20.70;82.10;;;;;;4998360;28;20046;-66
2022/03/23 09:52:23;;;;;;;6.97;5.28;;;21.60;78.10;;;;;;4998087;28;20022;-65
2022/03/23 09:54:48;;;;;;;7.50;4.85;;;21.50;79.00;;;;;;4995435;28;20034;-63
2022/03/23 09:57:14;;;;;;;5.90;5.07;;;21.10;80.10;;;;;;4994695;28;20066;-64
2022/03/23 09:59:42;;;;;;;8.52;5.57;;;22.00;78.50;;;;;;5000204;28;20475;-66
2022/03/23 10:02:45;;;;;;;8.57;5.07;;;22.40;78.00;;;;;;4997977;28;20176;-64
2022/03/23 10:05:42;;;;;;;7.75;5.10;;;21.80;77.70;;;;;;4997674;28;20030;-65
2022/03/23 10:08:23;;;;;;;8.02;5.20;;;19.40;81.50;;;;;;4997365;28;20041;-66
2022/03/23 10:11:13;;;;;;;7.30;5.07;;;20.20;81.90;;;;;;4997389;28;20061;-66
2022/03/23 10:13:57;;;;;;;5.95;5.05;;;22.60;77.00;;;;;;4995973;28;20518;-66
2022/03/23 10:16:23;;;;;;;5.25;4.75;;;21.40;78.10;;;;;;4997497;28;20109;-66
2022/03/23 10:18:51;;;;;;;5.20;4.68;;;21.50;79.30;;;;;;4996907;28;20060;-65
2022/03/23 10:21:22;;;;;;;8.07;4.78;;;22.00;78.20;;;;;;4993952;28;20025;-66
2022/03/23 10:24:00;;;;;;;10.40;6.57;;;21.10;79.80;;;;;;4998903;28;20080;-65
2022/03/23 10:26:27;;;;;;;7.25;5.07;;;20.60;79.00;;;;;;4999134;28;20570;-65
2022/03/23 10:28:54;;;;;;;8.32;5.88;;;21.30;78.50;;;;;;4997398;28;20035;-64
2022/03/23 10:31:21;;;;;;;9.38;5.45;;;18.70;83.60;;;;;;4997371;28;20031;-64
2022/03/23 10:34:08;;;;;;;5.95;4.60;;;19.30;82.30;;;;;;4993926;28;20025;-64
2022/03/23 10:36:50;;;;;;;7.13;5.00;;;19.90;82.30;;;;;;4980747;28;20526;-64
2022/03/23 10:39:17;;;;;;;22.58;17.23;;;19.60;82.50;;;;;;4993599;28;20499;-62
2022/03/23 10:41:43;;;;;;;6.07;4.90;;;18.80;84.60;;;;;;4999034;28;20121;-64
2022/03/23 10:44:16;;;;;;;8.68;4.97;;;20.60;79.90;;;;;;4997188;28;20098;-64
2022/03/23 10:46:43;;;;;;;;;;;20.30;80.80;;;;;;4997595;28;20056;-65
2022/03/23 10:49:10;;;;;;;7.72;4.70;;;19.80;80.90;;;;;;4996955;28;20295;-64
2022/03/23 10:51:37;;;;;;;8.00;5.22;;;20.90;79.70;;;;;;4992376;28;20019;-64
2022/03/23 10:54:17;;;;;;;6.70;4.95;;;20.60;80.70;;;;;;4994114;28;20069;-65
2022/03/23 10:56:42;;;;;;;7.47;4.53;;;20.60;79.20;;;;;;4997967;28;20100;-64
2022/03/23 10:59:26;;;;;;;7.93;4.78;;;20.30;79.90;;;;;;4997031;28;20391;-64
2022/03/23 11:02:04;;;;;;;6.78;4.97;;;20.50;81.30;;;;;;4996806;28;20030;-66
2022/03/23 11:04:53;;;;;;;5.72;4.80;;;19.30;82.60;;;;;;4995268;28;20026;-66
2022/03/23 11:07:30;;;;;;;9.43;5.45;;;20.50;80.50;;;;;;4996828;28;20109;-66
2022/03/23 11:15:49;;;;;;;5.38;4.20;;;21.10;79.00;;;;;;4980619;28;20030;-65
2022/03/23 11:18:20;;;;;;;7.70;4.72;;;20.20;80.50;;;;;;4993083;28;20405;-66
2022/03/23 11:20:49;;;;;;;7.97;4.88;;;18.40;83.00;;;;;;4998608;28;20035;-66
2022/03/23 11:23:27;;;;;;;6.50;4.30;;;19.50;81.90;;;;;;4996166;28;20034;-66
2022/03/23 11:25:55;;;;;;;8.02;4.30;;;20.10;80.30;;;;;;4996078;28;20041;-66
2022/03/23 11:28:22;;;;;;;7.05;4.88;;;21.30;79.90;;;;;;4996444;28;20388;-66
2022/03/23 11:30:49;;;;;;;8.82;4.70;;;21.00;79.70;;;;;;4996946;28;20495;-66
2022/03/23 11:33:18;;;;;;;7.07;4.63;;;19.10;81.50;;;;;;4992797;28;20030;-65
2022/03/23 11:35:48;;;;;;;6.20;4.50;;;18.30;84.20;;;;;;4998263;28;20035;-66
2022/03/23 11:38:22;;;;;;;7.15;4.30;;;18.10;84.00;;;;;;4996003;28;20031;-68
2022/03/23 11:40:52;;;;;;;6.03;4.90;;;18.50;84.50;;;;;;4995871;28;20026;-67
2022/03/23 11:43:22;;;;;;;7.13;5.00;;;19.00;84.00;;;;;;4994447;28;20537;-64
2022/03/23 11:45:52;;;;;;;6.38;4.75;;;19.60;83.70;;;;;;4995115;28;20042;-64
2022/03/23 11:48:31;;;;;;;6.07;5.05;;;18.60;83.40;;;;;;4992039;28;20089;-64
2022/03/23 11:51:00;;;;;;;6.35;5.40;;;19.10;85.80;;;;;;5005755;28;20034;-65
2022/03/23 11:53:53;;;;;;;7.43;5.78;;;19.70;82.10;;;;;;4996739;28;20073;-66
2022/03/23 11:57:02;;;;;;;10.23;5.38;;;19.50;83.80;;;;;;4995730;28;20045;-65
2022/03/23 11:59:31;;;;;;;8.30;4.30;;;18.20;84.70;;;;;;4997356;28;20387;-65
2022/03/23 12:01:58;;;;;;;7.15;4.90;;;18.70;83.30;;;;;;4995501;28;20034;-66
2022/03/23 12:04:28;;;;;;;7.32;4.90;;;18.50;84.00;;;;;;4995232;28;20018;-65
2022/03/23 12:07:00;;;;;;;6.82;5.10;;;18.80;82.90;;;;;;4994222;28;20030;-65
2022/03/23 12:09:34;;;;;;;7.00;4.43;;;18.30;82.50;;;;;;4975839;28;20050;-66
2022/03/23 12:12:01;;;;;;;5.97;5.38;;;18.80;84.70;;;;;;4995514;28;20024;-65
2022/03/23 12:14:38;;;;;;;6.68;5.07;;;19.20;85.80;;;;;;4996790;28;20042;-66
2022/03/23 12:17:06;;;;;;;5.60;5.00;;;18.00;84.30;;;;;;4995575;28;20037;-66
2022/03/23 12:19:51;;;;;;;7.45;4.97;;;18.50;84.40;;;;;;4996047;28;20026;-66
2022/03/23 12:22:39;;;;;;;11.02;8.07;;;17.80;85.40;;;;;;4994202;28;20030;-66
2022/03/23 12:25:25;;;;;;;6.97;5.20;;;18.20;85.70;;;;;;4951567;29;20054;-66
2022/03/23 12:28:28;;;;;;;7.63;5.43;;;18.30;85.30;;;;;;4951761;29;20050;-65
2022/03/23 12:30:55;;;;;;;7.82;6.63;;;18.00;84.30;;;;;;4951676;29;20144;-66
2022/03/23 12:33:22;;;;;;;7.05;4.40;;;18.10;84.40;;;;;;4936376;29;20460;-66
2022/03/23 12:35:48;;;;;;;6.45;5.53;;;17.20;85.90;;;;;;4952097;29;20036;-65
2022/03/23 12:38:21;;;;;;;5.25;4.60;;;17.50;86.20;;;;;;4940900;29;20028;-65
2022/03/23 12:40:48;;;;;;;5.78;4.70;;;19.00;84.60;;;;;;4940332;29;20031;-65
2022/03/23 12:43:35;;;;;;;7.00;5.10;;;18.40;84.50;;;;;;4940636;29;20138;-66
2022/03/23 12:46:01;;;;;;;5.05;4.55;;;18.00;84.50;;;;;;4940506;29;20090;-66
2022/03/23 12:59:37;;;;;;;7.00;4.68;;;18.50;84.80;;;;;;4939197;29;20082;-66
2022/03/23 13:02:21;;;;;;;6.30;4.40;;;18.20;86.50;;;;;;4958778;28;20042;-66
2022/03/23 13:04:47;;;;;;;13.45;10.65;;;17.80;87.80;;;;;;4990779;28;20030;-65
2022/03/23 13:07:28;;;;;;;12.75;9.07;;;18.50;86.60;;;;;;4994618;28;20038;-65
2022/03/23 13:10:14;;;;;;;6.82;4.78;;;18.90;86.10;;;;;;4993515;28;20037;-66
2022/03/23 13:12:44;;;;;;;27.98;5.75;;;18.00;86.00;;;;;;4979799;28;20450;-66
2022/03/23 13:15:13;;;;;;;10.23;5.60;;;18.50;86.60;;;;;;4991578;28;20638;-65
2022/03/23 13:17:44;;;;;;;8.57;5.15;;;18.20;87.40;;;;;;4996180;28;20022;-66
2022/03/23 13:20:11;;;;;;;6.28;4.32;;;17.90;86.40;;;;;;4995117;28;20129;-66
2022/03/23 13:22:38;;;;;;;5.75;4.00;;;17.50;85.20;;;;;;4994552;28;20031;-65
2022/03/23 13:25:07;;;;;;;8.93;5.30;;;17.40;86.00;;;;;;4994451;28;20038;-65